Hettinger, ND

3:40 PM MST on December 06, 2016 (GMT -0700)
Hettinger Municipal

Weather History for KHEI - May, 2013

Change the Weather History Date:

Sunday, May 19, 2013

  Actual Average Record
Temperature  
Mean Temperature 55 °F -  
Max Temperature 59 °F 66 °F 82 °F (2005)
Min Temperature 50 °F 40 °F 21 °F (2015)
Degree Days  
Heating Degree Days 10    
Cooling Degree Days 0 0  
Month to date cooling degree days 7 0  
Year to date cooling degree days 7 0  
Growing Degree Days 4 (Base 50)    
Moisture  
Dew Point 51 °F    
Average Humidity 91    
Maximum Humidity 96    
Minimum Humidity 89    
Precipitation  
Precipitation 1.28 in 0.08 in 1.28 in (2013)
Month to date precipitation 1.89 1.43  
Year to date precipitation 3.12 4.39  
Sea Level Pressure  
Sea Level Pressure 29.70 in    
Wind  
Wind Speed 19 mph (North)    
Max Wind Speed 29 mph    
Max Gust Speed 39 mph    
Visibility 5 miles    
Events Rain    
T = Trace of Precipitation, MM = Missing Value Source: NWS Daily Summary

Daily Weather History Graph

Daily Weather History Graph

Search for Another Location

Airport or City:

Trip Planner

Search our weather history database for the weather conditions in past years. The results will help you decide how hot, cold, wet, or windy it might be!

Date:

Astronomy

May. 19, 2013 Rise Set
Actual Time 5:13 AM MDT 8:21 PM MDT
Civil Twilight 4:37 AM MDT 8:57 PM MDT
Nautical Twilight 3:51 AM MDT 9:43 PM MDT
Astronomical Twilight 2:55 AM MDT 10:40 PM MDT
Moon 2:09 PM MDT (5/19) 1:58 AM MDT (5/19)
Length of Visible Light 16h 19m
Length of Day
15h 07m
Waxing Gibbous, 66% of the Moon is Illuminated
May 19
Waxing Gibbous
May 24
Full
May 31
Last Quarter
Jun 8
New
Jun 16
First Quarter

Hourly Weather History & Observations

Time (MDT) Temp. Dew Point Humidity Pressure Visibility Wind Dir Wind Speed Gust Speed Precip Events Conditions
12:23 AM 57.2 °F 55.4 °F 94% 29.76 in 8.0 mi West 9.2 mph - N/A   Scattered Clouds
12:32 AM 57.2 °F 55.4 °F 94% 29.75 in 10.0 mi West 9.2 mph - N/A   Mostly Cloudy
12:53 AM 57.9 °F 55.0 °F 90% 29.72 in 10.0 mi NW 6.9 mph - N/A   Overcast
1:21 AM 59.0 °F 55.4 °F 88% 29.75 in 10.0 mi North 8.1 mph - N/A   Overcast
1:47 AM 57.2 °F 55.4 °F 94% 29.75 in 9.0 mi NNE 9.2 mph - N/A   Overcast
1:48 AM 57.9 °F 55.0 °F 90% 29.71 in 9.0 mi North 11.5 mph - N/A   Overcast
2:05 AM 57.2 °F 55.4 °F 94% 29.75 in 9.0 mi NNE 11.5 mph - N/A   Overcast
2:53 AM 57.0 °F 55.0 °F 93% 29.72 in 8.0 mi NE 13.8 mph - 0.00 in   Overcast
3:15 AM 57.2 °F 55.4 °F 94% 29.74 in 7.0 mi NE 11.5 mph - N/A   Overcast
3:42 AM 57.2 °F 55.4 °F 94% 29.74 in 7.0 mi NE 11.5 mph - N/A   Overcast
3:53 AM 57.0 °F 55.0 °F 93% 29.71 in 7.0 mi NE 13.8 mph - N/A   Overcast
4:15 AM 57.2 °F 55.4 °F 94% 29.74 in 7.0 mi NE 12.7 mph - N/A   Overcast
4:31 AM 57.2 °F 55.4 °F 94% 29.73 in 2.5 mi NE 15.0 mph - 0.00 in Rain Light Rain
4:36 AM 55.4 °F 55.4 °F 100% 29.73 in 3.0 mi NE 13.8 mph - 0.00 in Rain Light Rain
4:46 AM 55.4 °F 53.6 °F 94% 29.73 in 2.5 mi NE 13.8 mph - 0.01 in   Overcast
4:53 AM 55.9 °F 54.0 °F 93% 29.70 in 2.0 mi NE 15.0 mph 21.9 mph 0.01 in Rain Light Rain
5:10 AM 55.4 °F 53.6 °F 94% 29.73 in 3.0 mi NNE 12.7 mph - 0.00 in Rain Light Rain
6:53 AM 54.0 °F 52.0 °F 93% 29.72 in 5.0 mi North 15.0 mph - 0.01 in Rain Light Rain
7:11 AM 53.6 °F 51.8 °F 94% 29.74 in 6.0 mi North 12.7 mph - 0.01 in Rain Light Rain
7:53 AM 53.1 °F 51.1 °F 93% 29.73 in 4.0 mi North 15.0 mph - 0.05 in Rain Rain
8:06 AM 51.8 °F 51.8 °F 100% 29.73 in 5.0 mi North 11.5 mph 21.9 mph 0.01 in Rain Rain
8:11 AM 51.8 °F 51.8 °F 100% 29.73 in 5.0 mi North 18.4 mph 25.3 mph 0.02 in Rain Light Rain
8:53 AM 52.0 °F 50.0 °F 93% 29.72 in 7.0 mi North 15.0 mph 23.0 mph 0.07 in Rain Rain
9:06 AM 51.8 °F 48.2 °F 88% 29.73 in 3.0 mi North 18.4 mph 27.6 mph 0.03 in Rain Heavy Rain
9:16 AM 51.8 °F 48.2 °F 88% 29.73 in 4.0 mi North 19.6 mph 27.6 mph 0.06 in Rain Rain
9:38 AM 51.8 °F 48.2 °F 88% 29.72 in 6.0 mi North 17.3 mph 26.5 mph 0.09 in Rain Rain
9:53 AM 52.0 °F 50.0 °F 93% 29.72 in 6.0 mi North 18.4 mph 26.5 mph 0.10 in Rain Light Rain
10:13 AM 53.6 °F 50.0 °F 88% 29.72 in 6.0 mi North 20.7 mph 26.5 mph 0.03 in Rain Light Rain
10:53 AM 52.0 °F 50.0 °F 93% 29.71 in 6.0 mi North 19.6 mph 28.8 mph 0.08 in Rain Light Rain
11:09 AM 51.8 °F 50.0 °F 94% 29.71 in 7.0 mi North 21.9 mph 31.1 mph 0.02 in Rain Light Rain
11:14 AM 51.8 °F 48.2 °F 88% 29.71 in 8.0 mi North 23.0 mph 31.1 mph 0.02 in Rain Light Rain
11:17 AM 51.8 °F 48.2 °F 88% 29.71 in 8.0 mi North 20.7 mph 31.1 mph 0.03 in Rain Light Rain
11:23 AM 51.8 °F 48.2 °F 88% 29.71 in 7.0 mi North 18.4 mph 28.8 mph 0.04 in Rain Light Rain
11:30 AM 51.8 °F 48.2 °F 88% 29.71 in 6.0 mi North 18.4 mph 28.8 mph 0.04 in Rain Rain
11:53 AM 52.0 °F 48.9 °F 89% 29.70 in 6.0 mi North 18.4 mph 29.9 mph 0.08 in Rain Rain
12:02 PM 51.8 °F 48.2 °F 88% 29.70 in 6.0 mi North 18.4 mph 26.5 mph 0.02 in Rain Rain
12:10 PM 51.8 °F 48.2 °F 88% 29.70 in 5.0 mi North 21.9 mph 31.1 mph 0.03 in Rain Rain
1:01 PM 51.8 °F 48.2 °F 88% 29.70 in 5.0 mi North 17.3 mph 27.6 mph 0.02 in Rain Rain
1:17 PM 51.8 °F 48.2 °F 88% 29.70 in 5.0 mi North 16.1 mph 27.6 mph 0.06 in Rain Rain
1:27 PM 51.8 °F 48.2 °F 88% 29.70 in 5.0 mi North 15.0 mph 28.8 mph 0.08 in Rain Rain
1:46 PM 51.8 °F 48.2 °F 88% 29.70 in 5.0 mi North 19.6 mph 28.8 mph 0.13 in Rain Rain
2:09 PM 51.8 °F 48.2 °F 88% 29.70 in 4.0 mi North 17.3 mph - 0.05 in Rain Heavy Rain
2:51 PM 51.8 °F 48.2 °F 88% 29.70 in 5.0 mi NNW 18.4 mph - 0.15 in Rain Rain
2:53 PM 52.0 °F 50.0 °F 93% 29.69 in 5.0 mi NNW 21.9 mph 29.9 mph 0.15 in Rain Rain
3:53 PM 51.1 °F 48.9 °F 92% 29.68 in 4.0 mi NNW 18.4 mph 27.6 mph 0.11 in Rain Rain
4:16 PM 51.8 °F 48.2 °F 88% 29.68 in 4.0 mi NNW 25.3 mph 31.1 mph 0.02 in Rain Light Rain
4:28 PM 51.8 °F 48.2 °F 88% 29.68 in 4.0 mi NNW 21.9 mph 29.9 mph 0.05 in Rain Rain
4:30 PM 51.8 °F 48.2 °F 88% 29.68 in 4.0 mi NNW 23.0 mph 29.9 mph 0.05 in Rain Rain
4:48 PM 51.8 °F 50.0 °F 94% 29.68 in 5.0 mi NNW 23.0 mph 29.9 mph 0.07 in Rain Rain
4:53 PM 51.1 °F 50.0 °F 96% 29.68 in 4.0 mi NNW 23.0 mph 29.9 mph 0.08 in Rain Rain
5:05 PM 51.8 °F 48.2 °F 88% 29.67 in 5.0 mi NNW 21.9 mph 33.4 mph 0.03 in Rain Rain
5:53 PM 51.1 °F 48.9 °F 92% 29.66 in 4.0 mi NNW 25.3 mph 31.1 mph 0.10 in Rain Light Rain
6:50 PM 51.8 °F 48.2 °F 88% 29.65 in 2.5 mi NNW 26.5 mph 33.4 mph 0.03 in   Overcast
6:53 PM 51.1 °F 48.9 °F 92% 29.65 in 2.5 mi NNW 25.3 mph 33.4 mph 0.03 in   Overcast
7:07 PM 51.8 °F 48.2 °F 88% 29.65 in 1.8 mi NNW 21.9 mph 32.2 mph 0.02 in Rain Rain
7:21 PM 51.8 °F 48.2 °F 88% 29.64 in 2.0 mi NNW 24.2 mph 29.9 mph 0.03 in Rain Light Rain
7:28 PM 51.8 °F 48.2 °F 88% 29.64 in 1.8 mi NNW 24.2 mph 31.1 mph 0.04 in   Overcast
7:53 PM 51.1 °F 48.9 °F 92% 29.64 in 2.0 mi NNW 21.9 mph 31.1 mph 0.05 in Rain Light Rain
8:30 PM 51.8 °F 48.2 °F 88% 29.63 in 3.0 mi NNW 23.0 mph 29.9 mph 0.01 in Rain Light Rain
8:53 PM 51.1 °F 50.0 °F 96% 29.64 in 3.0 mi NNW 23.0 mph 31.1 mph 0.01 in Rain Light Rain
9:53 PM 51.1 °F 48.9 °F 92% 29.63 in 4.0 mi NNW 24.2 mph 33.4 mph 0.01 in Rain Light Rain
10:53 PM 50.0 °F 48.9 °F 96% 29.61 in 4.0 mi NNW 21.9 mph 32.2 mph 0.01 in Rain Light Rain
11:53 PM 50.0 °F 48.0 °F 93% 29.59 in 10.0 mi North 25.3 mph 34.5 mph 0.01 in   Overcast